sensor_id;sensor_type;location;lat;lon;timestamp;pressure;altitude;pressure_sealevel;temperature;humidity
68871;BME280;55906;52.278;6.808;2023-06-22T00:00:45;101789.22;;;21.14;66.12
68871;BME280;55906;52.278;6.808;2023-06-22T00:03:12;101787.44;;;21.12;65.72
68871;BME280;55906;52.278;6.808;2023-06-22T00:05:39;101795.47;;;21.12;66.21
68871;BME280;55906;52.278;6.808;2023-06-22T00:08:05;101794.59;;;21.08;66.43
68871;BME280;55906;52.278;6.808;2023-06-22T00:10:33;101788.34;;;21.04;66.67
68871;BME280;55906;52.278;6.808;2023-06-22T00:13:00;101791.94;;;20.99;66.93
68871;BME280;55906;52.278;6.808;2023-06-22T00:15:27;101786.59;;;20.94;67.16
68871;BME280;55906;52.278;6.808;2023-06-22T00:17:54;101787.50;;;20.87;67.26
68871;BME280;55906;52.278;6.808;2023-06-22T00:20:22;101790.19;;;20.83;67.33
68871;BME280;55906;52.278;6.808;2023-06-22T00:22:53;101782.13;;;20.80;67.31
68871;BME280;55906;52.278;6.808;2023-06-22T00:25:20;101783.03;;;20.77;68.00
68871;BME280;55906;52.278;6.808;2023-06-22T00:27:48;101786.59;;;20.76;67.58
68871;BME280;55906;52.278;6.808;2023-06-22T00:30:15;101780.34;;;20.71;67.97
68871;BME280;55906;52.278;6.808;2023-06-22T00:32:42;101773.22;;;20.67;68.30
68871;BME280;55906;52.278;6.808;2023-06-22T00:35:09;101777.69;;;20.62;68.20
68871;BME280;55906;52.278;6.808;2023-06-22T00:37:37;101776.81;;;20.61;68.18
68871;BME280;55906;52.278;6.808;2023-06-22T00:40:04;101770.56;;;20.59;68.73
68871;BME280;55906;52.278;6.808;2023-06-22T00:42:33;101765.22;;;20.55;68.78
68871;BME280;55906;52.278;6.808;2023-06-22T00:45:01;101771.47;;;20.54;69.04
68871;BME280;55906;52.278;6.808;2023-06-22T00:47:27;101767.00;;;20.53;68.92
68871;BME280;55906;52.278;6.808;2023-06-22T00:49:54;101765.22;;;20.49;68.72
68871;BME280;55906;52.278;6.808;2023-06-22T00:52:22;101751.84;;;20.49;68.60
68871;BME280;55906;52.278;6.808;2023-06-22T00:54:54;101756.31;;;20.47;69.14
68871;BME280;55906;52.278;6.808;2023-06-22T00:57:23;101751.84;;;20.42;69.24
68871;BME280;55906;52.278;6.808;2023-06-22T00:59:51;101762.56;;;20.39;69.18
68871;BME280;55906;52.278;6.808;2023-06-22T01:02:19;101756.28;;;20.37;69.49
68871;BME280;55906;52.278;6.808;2023-06-22T01:04:45;101755.41;;;20.35;69.55
68871;BME280;55906;52.278;6.808;2023-06-22T01:07:22;101756.28;;;20.33;69.74
68871;BME280;55906;52.278;6.808;2023-06-22T01:10:08;101763.41;;;20.29;71.64
68871;BME280;55906;52.278;6.808;2023-06-22T01:12:45;101766.97;;;20.25;70.74
68871;BME280;55906;52.278;6.808;2023-06-22T01:15:20;101768.75;;;20.20;70.87
68871;BME280;55906;52.278;6.808;2023-06-22T01:17:49;101766.06;;;20.17;70.48
68871;BME280;55906;52.278;6.808;2023-06-22T01:20:20;101758.94;;;20.13;70.69
68871;BME280;55906;52.278;6.808;2023-06-22T01:22:59;101769.63;;;20.13;71.19
68871;BME280;55906;52.278;6.808;2023-06-22T01:25:33;101764.28;;;20.07;71.06
68871;BME280;55906;52.278;6.808;2023-06-22T01:28:08;101760.72;;;20.02;71.13
68871;BME280;55906;52.278;6.808;2023-06-22T01:30:41;101767.84;;;19.97;71.30
68871;BME280;55906;52.278;6.808;2023-06-22T01:33:10;101755.38;;;19.91;71.28
68871;BME280;55906;52.278;6.808;2023-06-22T01:35:38;101763.38;;;19.91;71.27
68871;BME280;55906;52.278;6.808;2023-06-22T01:38:06;101756.25;;;19.86;71.37
68871;BME280;55906;52.278;6.808;2023-06-22T01:40:33;101762.47;;;19.83;71.76
68871;BME280;55906;52.278;6.808;2023-06-22T01:43:02;101756.22;;;19.79;72.03
68871;BME280;55906;52.278;6.808;2023-06-22T01:45:30;101758.91;;;19.76;72.16
68871;BME280;55906;52.278;6.808;2023-06-22T01:47:58;101750.88;;;19.73;72.55
68871;BME280;55906;52.278;6.808;2023-06-22T01:50:25;101757.09;;;19.72;72.19
68871;BME280;55906;52.278;6.808;2023-06-22T01:52:51;101756.19;;;19.67;72.86
68871;BME280;55906;52.278;6.808;2023-06-22T01:55:18;101749.97;;;19.65;73.03
68871;BME280;55906;52.278;6.808;2023-06-22T01:57:45;101748.16;;;19.61;73.09
68871;BME280;55906;52.278;6.808;2023-06-22T02:00:15;101749.97;;;19.62;73.71
68871;BME280;55906;52.278;6.808;2023-06-22T02:02:52;101752.63;;;19.62;74.03
68871;BME280;55906;52.278;6.808;2023-06-22T02:05:23;101750.84;;;19.63;73.70
68871;BME280;55906;52.278;6.808;2023-06-22T02:07:56;101750.84;;;19.63;73.49
68871;BME280;55906;52.278;6.808;2023-06-22T02:10:26;101747.28;;;19.59;73.79
68871;BME280;55906;52.278;6.808;2023-06-22T02:12:54;101743.72;;;19.57;73.56
68871;BME280;55906;52.278;6.808;2023-06-22T02:15:22;101743.72;;;19.56;73.17
68871;BME280;55906;52.278;6.808;2023-06-22T02:17:48;101741.03;;;19.53;73.92
68871;BME280;55906;52.278;6.808;2023-06-22T02:20:15;101745.47;;;19.52;74.14
68871;BME280;55906;52.278;6.808;2023-06-22T02:22:43;101744.56;;;19.52;74.89
68871;BME280;55906;52.278;6.808;2023-06-22T02:25:10;101752.53;;;19.50;74.89
68871;BME280;55906;52.278;6.808;2023-06-22T02:27:37;101746.28;;;19.49;74.46
68871;BME280;55906;52.278;6.808;2023-06-22T02:30:07;101740.94;;;19.48;74.88
68871;BME280;55906;52.278;6.808;2023-06-22T02:32:34;101743.59;;;19.46;74.85
68871;BME280;55906;52.278;6.808;2023-06-22T02:35:03;101747.16;;;19.47;74.78
68871;BME280;55906;52.278;6.808;2023-06-22T02:37:31;101748.94;;;19.45;74.87
68871;BME280;55906;52.278;6.808;2023-06-22T02:39:59;101740.94;;;19.45;75.29
68871;BME280;55906;52.278;6.808;2023-06-22T02:42:26;101736.47;;;19.44;75.14
68871;BME280;55906;52.278;6.808;2023-06-22T02:44:53;101749.84;;;19.45;75.22
68871;BME280;55906;52.278;6.808;2023-06-22T02:47:19;101740.91;;;19.39;75.36
68871;BME280;55906;52.278;6.808;2023-06-22T02:49:46;101745.38;;;19.43;75.35
68871;BME280;55906;52.278;6.808;2023-06-22T02:52:13;101750.69;;;19.40;75.75
68871;BME280;55906;52.278;6.808;2023-06-22T02:54:39;101743.59;;;19.39;75.94
68871;BME280;55906;52.278;6.808;2023-06-22T02:57:07;101742.69;;;19.37;76.03
68871;BME280;55906;52.278;6.808;2023-06-22T02:59:39;101750.69;;;19.37;75.85
68871;BME280;55906;52.278;6.808;2023-06-22T03:02:06;101753.38;;;19.37;76.11
68871;BME280;55906;52.278;6.808;2023-06-22T03:04:33;101756.03;;;19.35;76.02
68871;BME280;55906;52.278;6.808;2023-06-22T03:06:59;101750.69;;;19.34;76.21
68871;BME280;55906;52.278;6.808;2023-06-22T03:09:26;101737.31;;;19.31;76.28
68871;BME280;55906;52.278;6.808;2023-06-22T03:11:53;101745.34;;;19.31;76.72
68871;BME280;55906;52.278;6.808;2023-06-22T03:14:21;101747.13;;;19.32;76.64
68871;BME280;55906;52.278;6.808;2023-06-22T03:16:48;101750.66;;;19.28;76.72
68871;BME280;55906;52.278;6.808;2023-06-22T03:19:15;101740.84;;;19.25;76.91
68871;BME280;55906;52.278;6.808;2023-06-22T03:21:42;101741.75;;;19.23;77.12
68871;BME280;55906;52.278;6.808;2023-06-22T03:24:08;101747.06;;;19.23;77.47
68871;BME280;55906;52.278;6.808;2023-06-22T03:26:35;101747.94;;;19.20;77.38
68871;BME280;55906;52.278;6.808;2023-06-22T03:29:02;101734.63;;;19.20;77.45
68871;BME280;55906;52.278;6.808;2023-06-22T03:31:30;101742.63;;;19.20;77.81
68871;BME280;55906;52.278;6.808;2023-06-22T03:33:56;101746.16;;;19.19;78.06
68871;BME280;55906;52.278;6.808;2023-06-22T03:36:23;101742.59;;;19.17;78.59
68871;BME280;55906;52.278;6.808;2023-06-22T03:38:51;101741.72;;;19.16;78.46
68871;BME280;55906;52.278;6.808;2023-06-22T03:41:18;101745.28;;;19.18;78.25
68871;BME280;55906;52.278;6.808;2023-06-22T03:43:44;101745.28;;;19.17;78.61
68871;BME280;55906;52.278;6.808;2023-06-22T03:46:11;101741.72;;;19.18;78.30
68871;BME280;55906;52.278;6.808;2023-06-22T03:48:39;101745.28;;;19.20;78.55
68871;BME280;55906;52.278;6.808;2023-06-22T03:51:05;101739.94;;;19.18;78.88
68871;BME280;55906;52.278;6.808;2023-06-22T03:53:32;101739.06;;;19.23;78.60
68871;BME280;55906;52.278;6.808;2023-06-22T03:55:59;101739.97;;;19.23;78.61
68871;BME280;55906;52.278;6.808;2023-06-22T03:58:25;101739.09;;;19.26;78.82
68871;BME280;55906;52.278;6.808;2023-06-22T04:00:58;101735.53;;;19.28;78.59
68871;BME280;55906;52.278;6.808;2023-06-22T04:03:25;101728.44;;;19.32;78.44
68871;BME280;55906;52.278;6.808;2023-06-22T04:05:53;101726.66;;;19.32;78.58
68871;BME280;55906;52.278;6.808;2023-06-22T04:08:20;101725.75;;;19.32;79.39
68871;BME280;55906;52.278;6.808;2023-06-22T04:10:47;101724.88;;;19.34;78.97
68871;BME280;55906;52.278;6.808;2023-06-22T04:13:13;101719.53;;;19.31;79.64
68871;BME280;55906;52.278;6.808;2023-06-22T04:15:40;101731.09;;;19.29;80.33
68871;BME280;55906;52.278;6.808;2023-06-22T04:18:07;101726.66;;;19.29;79.93
68871;BME280;55906;52.278;6.808;2023-06-22T04:20:33;101736.44;;;19.32;79.71
68871;BME280;55906;52.278;6.808;2023-06-22T04:23:01;101726.66;;;19.32;79.84
68871;BME280;55906;52.278;6.808;2023-06-22T04:25:28;101725.78;;;19.33;79.62
68871;BME280;55906;52.278;6.808;2023-06-22T04:27:54;101732.84;;;19.24;82.39
68871;BME280;55906;52.278;6.808;2023-06-22T04:30:21;101736.44;;;19.30;79.95
68871;BME280;55906;52.278;6.808;2023-06-22T04:32:48;101730.22;;;19.31;80.10
68871;BME280;55906;52.278;6.808;2023-06-22T04:35:21;101730.22;;;19.31;80.35
68871;BME280;55906;52.278;6.808;2023-06-22T04:37:48;101731.06;;;19.26;81.03
68871;BME280;55906;52.278;6.808;2023-06-22T04:40:21;101723.97;;;19.28;80.49
68871;BME280;55906;52.278;6.808;2023-06-22T04:42:48;101720.41;;;19.27;80.50
68871;BME280;55906;52.278;6.808;2023-06-22T04:45:19;101716.84;;;19.25;81.88
68871;BME280;55906;52.278;6.808;2023-06-22T04:47:46;101708.81;;;19.21;81.17
68871;BME280;55906;52.278;6.808;2023-06-22T04:50:12;101718.63;;;19.26;81.01
68871;BME280;55906;52.278;6.808;2023-06-22T04:52:39;101704.41;;;19.26;80.63
68871;BME280;55906;52.278;6.808;2023-06-22T04:55:07;101718.66;;;19.34;80.59
68871;BME280;55906;52.278;6.808;2023-06-22T04:57:35;101721.34;;;19.38;80.21
68871;BME280;55906;52.278;6.808;2023-06-22T05:00:05;101714.25;;;19.42;80.31
68871;BME280;55906;52.278;6.808;2023-06-22T05:02:38;101714.25;;;19.48;80.12
68871;BME280;55906;52.278;6.808;2023-06-22T05:05:05;101709.00;;;19.56;79.89
68871;BME280;55906;52.278;6.808;2023-06-22T05:07:33;101713.47;;;19.61;79.90
68871;BME280;55906;52.278;6.808;2023-06-22T05:09:59;101707.25;;;19.68;79.56
68871;BME280;55906;52.278;6.808;2023-06-22T05:12:27;101721.50;;;19.73;79.82
68871;BME280;55906;52.278;6.808;2023-06-22T05:14:55;101711.72;;;19.81;79.33
68871;BME280;55906;52.278;6.808;2023-06-22T05:17:22;101715.28;;;19.87;78.97
68871;BME280;55906;52.278;6.808;2023-06-22T05:19:49;101714.41;;;19.91;79.09
68871;BME280;55906;52.278;6.808;2023-06-22T05:22:15;101710.84;;;20.02;78.34
68871;BME280;55906;52.278;6.808;2023-06-22T05:24:42;101708.19;;;20.04;78.17
68871;BME280;55906;52.278;6.808;2023-06-22T05:27:09;101713.53;;;20.10;78.36
68871;BME280;55906;52.278;6.808;2023-06-22T05:29:36;101712.63;;;20.12;78.85
68871;BME280;55906;52.278;6.808;2023-06-22T05:32:05;101713.53;;;20.13;78.54
68871;BME280;55906;52.278;6.808;2023-06-22T05:34:32;101712.63;;;20.28;77.49
68871;BME280;55906;52.278;6.808;2023-06-22T05:36:59;101713.53;;;20.40;77.11
68871;BME280;55906;52.278;6.808;2023-06-22T05:39:26;101719.78;;;20.47;76.95
68871;BME280;55906;52.278;6.808;2023-06-22T05:41:52;101714.41;;;20.58;76.31
68871;BME280;55906;52.278;6.808;2023-06-22T05:44:21;101715.28;;;20.67;75.97
68871;BME280;55906;52.278;6.808;2023-06-22T05:46:48;101701.00;;;20.73;75.83
68871;BME280;55906;52.278;6.808;2023-06-22T05:49:16;101706.34;;;20.85;75.39
68871;BME280;55906;52.278;6.808;2023-06-22T05:51:43;101709.91;;;20.90;75.17
68871;BME280;55906;52.278;6.808;2023-06-22T05:54:10;101702.72;;;21.01;74.96
68871;BME280;55906;52.278;6.808;2023-06-22T05:56:38;101704.47;;;21.12;74.10
68871;BME280;55906;52.278;6.808;2023-06-22T05:59:05;101704.44;;;21.21;74.22
68871;BME280;55906;52.278;6.808;2023-06-22T06:01:32;101709.78;;;21.28;73.66
68871;BME280;55906;52.278;6.808;2023-06-22T06:04:03;101710.59;;;21.44;73.12
68871;BME280;55906;52.278;6.808;2023-06-22T06:06:31;101718.59;;;21.50;72.62
68871;BME280;55906;52.278;6.808;2023-06-22T06:09:00;101722.09;;;21.64;72.12
68871;BME280;55906;52.278;6.808;2023-06-22T06:11:26;101720.25;;;21.72;72.00
68871;BME280;55906;52.278;6.808;2023-06-22T06:13:53;101731.75;;;21.88;71.15
68871;BME280;55906;52.278;6.808;2023-06-22T06:16:20;101732.56;;;22.01;70.62
68871;BME280;55906;52.278;6.808;2023-06-22T06:18:46;101728.03;;;22.15;70.22
68871;BME280;55906;52.278;6.808;2023-06-22T06:21:13;101716.41;;;22.19;69.38
68871;BME280;55906;52.278;6.808;2023-06-22T06:23:41;101718.03;;;22.37;69.49
68871;BME280;55906;52.278;6.808;2023-06-22T06:26:08;101717.09;;;22.40;68.43
68871;BME280;55906;52.278;6.808;2023-06-22T06:28:35;101720.50;;;22.58;68.08
68871;BME280;55906;52.278;6.808;2023-06-22T06:31:02;101709.72;;;22.63;67.76
68871;BME280;55906;52.278;6.808;2023-06-22T06:33:32;101715.81;;;22.77;67.12
68871;BME280;55906;52.278;6.808;2023-06-22T06:35:58;101711.31;;;22.84;66.63
68871;BME280;55906;52.278;6.808;2023-06-22T06:38:27;101705.09;;;22.80;65.32
68871;BME280;55906;52.278;6.808;2023-06-22T06:40:56;101710.25;;;22.98;65.39
68871;BME280;55906;52.278;6.808;2023-06-22T06:43:22;101708.63;;;22.85;63.89
68871;BME280;55906;52.278;6.808;2023-06-22T06:45:50;101704.16;;;22.83;64.63
68871;BME280;55906;52.278;6.808;2023-06-22T06:48:16;101705.78;;;22.97;64.30
68871;BME280;55906;52.278;6.808;2023-06-22T06:50:43;101704.84;;;23.02;62.97
68871;BME280;55906;52.278;6.808;2023-06-22T06:53:10;101715.41;;;23.17;63.55
68871;BME280;55906;52.278;6.808;2023-06-22T06:55:37;101708.06;;;23.29;62.95
68871;BME280;55906;52.278;6.808;2023-06-22T06:58:05;101704.38;;;23.41;62.42
68871;BME280;55906;52.278;6.808;2023-06-22T07:00:33;101707.75;;;23.57;62.41
68871;BME280;55906;52.278;6.808;2023-06-22T07:03:01;101709.44;;;23.64;61.80
68871;BME280;55906;52.278;6.808;2023-06-22T07:05:27;101700.25;;;23.80;61.27
68871;BME280;55906;52.278;6.808;2023-06-22T07:07:54;101699.03;;;24.00;60.68
68871;BME280;55906;52.278;6.808;2023-06-22T07:10:21;101700.56;;;24.16;60.19
68871;BME280;55906;52.278;6.808;2023-06-22T07:12:47;101708.41;;;24.30;59.76
68871;BME280;55906;52.278;6.808;2023-06-22T07:15:15;101698.34;;;24.41;59.79
68871;BME280;55906;52.278;6.808;2023-06-22T07:17:42;101700.75;;;24.56;59.22
68871;BME280;55906;52.278;6.808;2023-06-22T07:20:09;101693.31;;;24.70;59.70
68871;BME280;55906;52.278;6.808;2023-06-22T07:22:37;101692.47;;;24.68;59.29
68871;BME280;55906;52.278;6.808;2023-06-22T07:25:05;101685.28;;;24.67;58.58
68871;BME280;55906;52.278;6.808;2023-06-22T07:27:35;101682.34;;;24.82;58.34
68871;BME280;55906;52.278;6.808;2023-06-22T07:30:03;101680.63;;;24.78;58.26
68871;BME280;55906;52.278;6.808;2023-06-22T07:32:32;101676.81;;;24.90;57.91
68871;BME280;55906;52.278;6.808;2023-06-22T07:34:58;101667.69;;;24.96;57.44
68871;BME280;55906;52.278;6.808;2023-06-22T07:37:25;101662.34;;;24.94;58.01
68871;BME280;55906;52.278;6.808;2023-06-22T07:39:53;101665.56;;;25.13;57.32
68871;BME280;55906;52.278;6.808;2023-06-22T07:42:23;101663.94;;;25.06;57.69
68871;BME280;55906;52.278;6.808;2023-06-22T07:44:50;101659.63;;;24.96;57.22
68871;BME280;55906;52.278;6.808;2023-06-22T07:47:17;101662.66;;;25.24;57.10
68871;BME280;55906;52.278;6.808;2023-06-22T07:49:46;101657.00;;;25.34;56.40
68871;BME280;55906;52.278;6.808;2023-06-22T07:52:13;101666.44;;;25.53;55.54
68871;BME280;55906;52.278;6.808;2023-06-22T07:54:39;101660.63;;;25.73;55.55
68871;BME280;55906;52.278;6.808;2023-06-22T07:57:06;101667.44;;;25.88;54.73
68871;BME280;55906;52.278;6.808;2023-06-22T07:59:33;101657.06;;;26.08;54.94
68871;BME280;55906;52.278;6.808;2023-06-22T08:02:00;101654.19;;;26.16;53.29
68871;BME280;55906;52.278;6.808;2023-06-22T08:04:30;101651.75;;;26.41;53.35
68871;BME280;55906;52.278;6.808;2023-06-22T08:07:00;101650.81;;;26.74;52.84
68871;BME280;55906;52.278;6.808;2023-06-22T08:09:28;101645.66;;;26.96;52.30
68871;BME280;55906;52.278;6.808;2023-06-22T08:11:54;101644.09;;;27.19;51.71
68871;BME280;55906;52.278;6.808;2023-06-22T08:14:22;101646.03;;;27.45;51.50
68871;BME280;55906;52.278;6.808;2023-06-22T08:16:48;101641.47;;;27.47;50.68
68871;BME280;55906;52.278;6.808;2023-06-22T08:19:15;101652.75;;;27.61;50.38
68871;BME280;55906;52.278;6.808;2023-06-22T08:21:42;101649.22;;;27.57;50.43
68871;BME280;55906;52.278;6.808;2023-06-22T08:24:10;101650.59;;;27.42;50.75
68871;BME280;55906;52.278;6.808;2023-06-22T08:26:37;101628.09;;;27.42;49.53
68871;BME280;55906;52.278;6.808;2023-06-22T08:29:04;101629.09;;;27.67;50.10
68871;BME280;55906;52.278;6.808;2023-06-22T08:31:31;101632.13;;;27.85;49.80
68871;BME280;55906;52.278;6.808;2023-06-22T08:33:59;101633.22;;;28.05;49.74
68871;BME280;55906;52.278;6.808;2023-06-22T08:36:25;101637.81;;;28.30;48.63
68871;BME280;55906;52.278;6.808;2023-06-22T08:38:58;101635.97;;;28.30;48.78
68871;BME280;55906;52.278;6.808;2023-06-22T08:41:29;101619.22;;;28.44;48.73
68871;BME280;55906;52.278;6.808;2023-06-22T08:43:56;101620.19;;;28.68;48.48
68871;BME280;55906;52.278;6.808;2023-06-22T08:46:23;101615.31;;;28.78;48.51
68871;BME280;55906;52.278;6.808;2023-06-22T08:48:55;101608.44;;;28.92;47.44
68871;BME280;55906;52.278;6.808;2023-06-22T08:51:22;101604.06;;;29.12;47.28
68871;BME280;55906;52.278;6.808;2023-06-22T08:53:48;101601.31;;;29.13;47.33
68871;BME280;55906;52.278;6.808;2023-06-22T08:56:15;101591.50;;;29.33;47.23
68871;BME280;55906;52.278;6.808;2023-06-22T08:58:43;101598.09;;;29.49;46.12
68871;BME280;55906;52.278;6.808;2023-06-22T09:01:10;101593.91;;;29.62;46.47
68871;BME280;55906;52.278;6.808;2023-06-22T09:03:36;101568.44;;;29.86;45.91
68871;BME280;55906;52.278;6.808;2023-06-22T09:06:03;101562.28;;;30.05;44.91
68871;BME280;55906;52.278;6.808;2023-06-22T09:08:30;101554.34;;;30.20;44.51
68871;BME280;55906;52.278;6.808;2023-06-22T09:10:56;101553.16;;;30.46;44.25
68871;BME280;55906;52.278;6.808;2023-06-22T09:13:23;101565.63;;;30.71;43.97
68871;BME280;55906;52.278;6.808;2023-06-22T09:15:51;101568.56;;;30.66;42.34
68871;BME280;55906;52.278;6.808;2023-06-22T09:18:18;101568.50;;;30.47;42.25
68871;BME280;55906;52.278;6.808;2023-06-22T09:20:45;101560.38;;;30.27;43.57
68871;BME280;55906;52.278;6.808;2023-06-22T09:23:12;101562.09;;;30.69;42.41
68871;BME280;55906;52.278;6.808;2023-06-22T09:25:38;101566.88;;;30.82;42.32
68871;BME280;55906;52.278;6.808;2023-06-22T09:28:06;101569.88;;;30.76;41.73
68871;BME280;55906;52.278;6.808;2023-06-22T09:30:32;101571.34;;;30.65;41.37
68871;BME280;55906;52.278;6.808;2023-06-22T09:33:00;101573.88;;;30.88;41.02
68871;BME280;55906;52.278;6.808;2023-06-22T09:35:27;101576.81;;;30.83;41.23
68871;BME280;55906;52.278;6.808;2023-06-22T09:37:54;101570.13;;;30.51;41.79
68871;BME280;55906;52.278;6.808;2023-06-22T09:40:20;101569.00;;;30.16;42.11
68871;BME280;55906;52.278;6.808;2023-06-22T09:42:47;101568.09;;;30.36;41.82
68871;BME280;55906;52.278;6.808;2023-06-22T09:45:14;101564.91;;;30.27;42.20
68871;BME280;55906;52.278;6.808;2023-06-22T09:47:40;101567.84;;;30.22;42.43
68871;BME280;55906;52.278;6.808;2023-06-22T09:50:09;101572.72;;;30.14;42.74
68871;BME280;55906;52.278;6.808;2023-06-22T09:52:36;101566.44;;;30.13;42.77
68871;BME280;55906;52.278;6.808;2023-06-22T09:55:04;101564.34;;;29.98;43.18
68871;BME280;55906;52.278;6.808;2023-06-22T09:57:30;101561.91;;;29.92;43.41
68871;BME280;55906;52.278;6.808;2023-06-22T09:59:57;101560.97;;;29.71;43.00
68871;BME280;55906;52.278;6.808;2023-06-22T10:02:24;101563.56;;;29.74;43.20
68871;BME280;55906;52.278;6.808;2023-06-22T10:04:50;101563.63;;;29.73;43.63
68871;BME280;55906;52.278;6.808;2023-06-22T10:07:18;101558.25;;;29.71;43.74
68871;BME280;55906;52.278;6.808;2023-06-22T10:09:45;101554.84;;;29.66;43.70
68871;BME280;55906;52.278;6.808;2023-06-22T10:12:15;101550.56;;;29.60;43.28
68871;BME280;55906;52.278;6.808;2023-06-22T10:14:41;101553.88;;;29.47;43.96
68871;BME280;55906;52.278;6.808;2023-06-22T10:17:08;101549.75;;;29.37;43.97
68871;BME280;55906;52.278;6.808;2023-06-22T10:19:34;101558.13;;;29.30;44.09
68871;BME280;55906;52.278;6.808;2023-06-22T10:22:03;101552.59;;;29.34;44.78
68871;BME280;55906;52.278;6.808;2023-06-22T10:24:31;101546.59;;;29.25;44.35
68871;BME280;55906;52.278;6.808;2023-06-22T10:26:58;101551.69;;;29.11;44.95
68871;BME280;55906;52.278;6.808;2023-06-22T10:29:25;101544.19;;;28.96;44.34
68871;BME280;55906;52.278;6.808;2023-06-22T10:31:51;101537.22;;;28.89;45.29
68871;BME280;55906;52.278;6.808;2023-06-22T10:34:18;101539.44;;;28.78;45.35
68871;BME280;55906;52.278;6.808;2023-06-22T10:36:45;101544.28;;;28.70;45.60
68871;BME280;55906;52.278;6.808;2023-06-22T10:39:14;101539.16;;;28.62;45.75
68871;BME280;55906;52.278;6.808;2023-06-22T10:41:42;101540.59;;;28.47;46.27
68871;BME280;55906;52.278;6.808;2023-06-22T10:44:08;101542.34;;;28.25;46.12
68871;BME280;55906;52.278;6.808;2023-06-22T10:46:36;101550.28;;;28.29;45.98
68871;BME280;55906;52.278;6.808;2023-06-22T10:49:02;101553.06;;;28.28;46.45
68871;BME280;55906;52.278;6.808;2023-06-22T10:51:29;101557.34;;;28.09;46.83
68871;BME280;55906;52.278;6.808;2023-06-22T10:53:56;101559.94;;;28.12;46.74
68871;BME280;55906;52.278;6.808;2023-06-22T10:56:23;101551.53;;;27.94;46.64
68871;BME280;55906;52.278;6.808;2023-06-22T10:58:51;101552.19;;;28.01;46.59
68871;BME280;55906;52.278;6.808;2023-06-22T11:01:18;101552.56;;;27.90;46.59
68871;BME280;55906;52.278;6.808;2023-06-22T11:03:44;101549.97;;;27.87;46.14
68871;BME280;55906;52.278;6.808;2023-06-22T11:06:11;101546.34;;;27.88;46.13
68871;BME280;55906;52.278;6.808;2023-06-22T11:08:38;101535.94;;;27.76;46.32
68871;BME280;55906;52.278;6.808;2023-06-22T11:11:04;101541.34;;;27.76;45.93
68871;BME280;55906;52.278;6.808;2023-06-22T11:13:31;101525.41;;;27.93;46.38
68871;BME280;55906;52.278;6.808;2023-06-22T11:15:59;101518.94;;;27.97;46.29
68871;BME280;55906;52.278;6.808;2023-06-22T11:18:25;101523.97;;;28.08;46.03
68871;BME280;55906;52.278;6.808;2023-06-22T11:20:52;101520.38;;;28.08;46.89
68871;BME280;55906;52.278;6.808;2023-06-22T11:23:19;101518.06;;;28.22;46.25
68871;BME280;55906;52.278;6.808;2023-06-22T11:25:45;101517.16;;;28.21;46.66
68871;BME280;55906;52.278;6.808;2023-06-22T11:28:13;101519.63;;;28.29;46.22
68871;BME280;55906;52.278;6.808;2023-06-22T11:30:39;101511.22;;;28.36;46.17
68871;BME280;55906;52.278;6.808;2023-06-22T11:33:07;101506.41;;;28.45;46.06
68871;BME280;55906;52.278;6.808;2023-06-22T11:35:34;101497.63;;;28.38;46.53
68871;BME280;55906;52.278;6.808;2023-06-22T11:38:01;101484.16;;;28.36;46.54
68871;BME280;55906;52.278;6.808;2023-06-22T11:40:28;101488.78;;;28.33;46.64
68871;BME280;55906;52.278;6.808;2023-06-22T11:42:55;101491.66;;;28.03;47.20
68871;BME280;55906;52.278;6.808;2023-06-22T11:45:22;101478.41;;;28.21;46.81
68871;BME280;55906;52.278;6.808;2023-06-22T11:47:48;101483.16;;;28.14;46.96
68871;BME280;55906;52.278;6.808;2023-06-22T11:50:17;101481.53;;;27.85;47.73
68871;BME280;55906;52.278;6.808;2023-06-22T11:52:43;101486.59;;;27.69;47.82
68871;BME280;55906;52.278;6.808;2023-06-22T11:55:10;101473.41;;;27.60;48.03
68871;BME280;55906;52.278;6.808;2023-06-22T11:57:38;101472.97;;;27.46;48.22
68871;BME280;55906;52.278;6.808;2023-06-22T12:00:06;101477.59;;;27.42;48.12
68871;BME280;55906;52.278;6.808;2023-06-22T12:02:40;101472.78;;;27.24;48.94
68871;BME280;55906;52.278;6.808;2023-06-22T12:05:07;101464.94;;;27.17;49.07
68871;BME280;55906;52.278;6.808;2023-06-22T12:07:35;101470.91;;;27.26;48.81
68871;BME280;55906;52.278;6.808;2023-06-22T12:10:03;101474.25;;;26.78;49.82
68871;BME280;55906;52.278;6.808;2023-06-22T12:12:30;101475.44;;;26.98;48.99
68871;BME280;55906;52.278;6.808;2023-06-22T12:14:59;101473.84;;;26.91;49.63
68871;BME280;55906;52.278;6.808;2023-06-22T12:17:28;101474.25;;;26.78;49.72
68871;BME280;55906;52.278;6.808;2023-06-22T12:19:55;101462.84;;;26.69;49.87
68871;BME280;55906;52.278;6.808;2023-06-22T12:22:22;101465.78;;;26.61;50.04
68871;BME280;55906;52.278;6.808;2023-06-22T12:24:50;101467.09;;;26.48;50.67
68871;BME280;55906;52.278;6.808;2023-06-22T12:27:17;101469.19;;;26.38;51.25
68871;BME280;55906;52.278;6.808;2023-06-22T12:29:45;101469.09;;;26.41;50.75
68871;BME280;55906;52.278;6.808;2023-06-22T12:32:13;101469.53;;;26.26;51.64
68871;BME280;55906;52.278;6.808;2023-06-22T12:34:39;101469.00;;;26.13;51.68
68871;BME280;55906;52.278;6.808;2023-06-22T12:37:06;101473.19;;;26.24;52.04
68871;BME280;55906;52.278;6.808;2023-06-22T12:39:33;101489.69;;;26.13;52.50
68871;BME280;55906;52.278;6.808;2023-06-22T12:42:01;101488.69;;;26.17;51.93
68871;BME280;55906;52.278;6.808;2023-06-22T12:44:28;101492.25;;;26.18;52.15
68871;BME280;55906;52.278;6.808;2023-06-22T12:46:54;101489.66;;;26.14;53.21
68871;BME280;55906;52.278;6.808;2023-06-22T12:49:21;101489.88;;;26.07;53.69
68871;BME280;55906;52.278;6.808;2023-06-22T12:51:47;101491.38;;;26.17;53.36